createdAt,value
2023-01-17T00:00:42.772Z,978.80
2023-01-17T00:01:42.739Z,978.80
2023-01-17T00:02:42.765Z,978.79
2023-01-17T00:03:42.735Z,978.91
2023-01-17T00:04:42.711Z,978.95
2023-01-17T00:05:42.719Z,978.89
2023-01-17T00:06:42.673Z,978.95
2023-01-17T00:07:42.698Z,978.93
2023-01-17T00:08:42.679Z,978.92
2023-01-17T00:09:42.653Z,978.93
2023-01-17T00:10:42.652Z,978.96
2023-01-17T00:11:42.625Z,978.98
2023-01-17T00:12:42.616Z,978.97
2023-01-17T00:13:42.684Z,978.89
2023-01-17T00:14:42.590Z,978.96
2023-01-17T00:15:42.620Z,978.92
2023-01-17T00:16:42.586Z,978.85
2023-01-17T00:17:42.566Z,978.90
2023-01-17T00:18:42.581Z,978.92
2023-01-17T00:19:42.570Z,978.96
2023-01-17T00:20:42.530Z,979.01
2023-01-17T00:21:42.533Z,979.00
2023-01-17T00:22:42.509Z,979.10
2023-01-17T00:23:42.505Z,979.09
2023-01-17T00:24:42.508Z,978.98
2023-01-17T00:25:42.493Z,978.97
2023-01-17T00:26:42.458Z,979.07
2023-01-17T00:27:42.461Z,979.08
2023-01-17T00:28:42.461Z,979.17
2023-01-17T00:29:42.478Z,979.08
2023-01-17T00:30:42.417Z,979.11
2023-01-17T00:31:42.443Z,979.07
2023-01-17T00:32:42.407Z,979.12
2023-01-17T00:33:42.384Z,979.13
2023-01-17T00:34:42.409Z,979.12
2023-01-17T00:35:42.405Z,979.16
2023-01-17T00:36:42.359Z,979.10
2023-01-17T00:37:42.336Z,979.17
2023-01-17T00:38:42.374Z,979.17
2023-01-17T00:39:42.321Z,979.17
2023-01-17T00:40:42.309Z,979.22
2023-01-17T00:41:42.303Z,979.42
2023-01-17T00:42:42.296Z,979.40
2023-01-17T00:43:42.299Z,979.39
2023-01-17T00:44:42.270Z,979.29
2023-01-17T00:45:42.256Z,979.35
2023-01-17T00:46:42.345Z,979.43
2023-01-17T00:47:42.228Z,979.41
2023-01-17T00:48:42.218Z,979.47
2023-01-17T00:49:42.211Z,979.46
2023-01-17T00:50:43.143Z,979.55
2023-01-17T00:51:42.195Z,979.57
2023-01-17T00:52:42.200Z,979.83
2023-01-17T00:53:42.220Z,979.63
2023-01-17T00:54:42.200Z,979.70
2023-01-17T00:55:42.147Z,979.63
2023-01-17T00:56:42.143Z,979.71
2023-01-17T00:57:42.136Z,979.70
2023-01-17T00:58:42.125Z,979.73
2023-01-17T00:59:42.164Z,979.72
2023-01-17T01:00:42.170Z,979.81
2023-01-17T01:01:42.178Z,979.73
2023-01-17T01:02:42.122Z,979.77
2023-01-17T01:03:42.083Z,979.82
2023-01-17T01:04:42.054Z,979.76
2023-01-17T01:05:42.063Z,979.78
2023-01-17T01:06:42.024Z,979.79
2023-01-17T01:07:42.011Z,979.75
2023-01-17T01:08:42.011Z,979.78
2023-01-17T01:09:41.993Z,979.85
2023-01-17T01:10:41.984Z,979.82
2023-01-17T01:11:41.984Z,979.89
2023-01-17T01:12:41.973Z,979.77
2023-01-17T01:13:41.953Z,979.81
2023-01-17T01:14:41.942Z,979.80
2023-01-17T01:15:41.920Z,979.80
2023-01-17T01:16:41.931Z,979.81
2023-01-17T01:17:41.918Z,979.88
2023-01-17T01:18:41.896Z,979.95
2023-01-17T01:19:41.924Z,980.02
2023-01-17T01:20:41.883Z,979.98
2023-01-17T01:21:41.856Z,979.93
2023-01-17T01:22:41.877Z,979.98
2023-01-17T01:23:41.823Z,979.91
2023-01-17T01:24:41.823Z,979.91
2023-01-17T01:25:41.885Z,979.96
2023-01-17T01:26:41.825Z,979.97
2023-01-17T01:27:41.807Z,980.00
2023-01-17T01:28:41.801Z,980.08
2023-01-17T01:29:41.768Z,979.96
2023-01-17T01:30:41.779Z,979.97
2023-01-17T01:31:41.840Z,979.97
2023-01-17T01:32:41.775Z,980.09
2023-01-17T01:33:41.729Z,980.06
2023-01-17T01:34:41.737Z,980.10
2023-01-17T01:35:41.705Z,980.06
2023-01-17T01:36:41.697Z,980.14
2023-01-17T01:37:41.685Z,980.22
2023-01-17T01:38:41.714Z,980.18
2023-01-17T01:39:41.675Z,980.23
2023-01-17T01:40:41.672Z,980.19
2023-01-17T01:41:41.658Z,980.34
2023-01-17T01:42:41.629Z,980.34
2023-01-17T01:43:41.684Z,980.42
2023-01-17T01:44:41.630Z,980.49
2023-01-17T01:45:41.677Z,980.36
2023-01-17T01:46:41.606Z,980.50
2023-01-17T01:47:41.570Z,980.42
2023-01-17T01:48:41.567Z,980.41
2023-01-17T01:49:41.571Z,980.59
2023-01-17T01:50:41.557Z,980.50
2023-01-17T01:51:41.536Z,980.53
2023-01-17T01:52:41.529Z,980.60
2023-01-17T01:53:41.565Z,980.65
2023-01-17T01:54:41.499Z,980.64
2023-01-17T01:55:41.509Z,980.56
2023-01-17T01:56:41.479Z,980.72
2023-01-17T01:57:41.482Z,980.75
2023-01-17T01:58:41.465Z,980.57
2023-01-17T01:59:41.468Z,980.79
2023-01-17T02:00:41.505Z,980.82
2023-01-17T02:01:41.526Z,980.80
2023-01-17T02:02:41.440Z,980.69
2023-01-17T02:03:41.422Z,980.72
2023-01-17T02:04:41.419Z,980.81
2023-01-17T02:05:41.374Z,980.79
2023-01-17T02:06:41.376Z,980.81
2023-01-17T02:07:41.364Z,980.87
2023-01-17T02:08:41.353Z,980.85
2023-01-17T02:09:41.361Z,980.99
2023-01-17T02:10:41.354Z,980.94
2023-01-17T02:11:41.310Z,980.97
2023-01-17T02:12:41.346Z,981.08
2023-01-17T02:13:41.283Z,981.03
2023-01-17T02:14:41.315Z,981.06
2023-01-17T02:15:41.254Z,981.07
2023-01-17T02:16:41.294Z,981.06
2023-01-17T02:17:41.240Z,981.25
2023-01-17T02:18:41.244Z,981.21
2023-01-17T02:19:41.251Z,981.23
2023-01-17T02:20:41.210Z,981.23
2023-01-17T02:21:41.194Z,981.23
2023-01-17T02:22:41.209Z,981.25
2023-01-17T02:23:41.197Z,981.30
2023-01-17T02:24:41.238Z,981.29
2023-01-17T02:25:43.397Z,981.30
2023-01-17T02:26:41.172Z,981.26
2023-01-17T02:27:41.143Z,981.22
2023-01-17T02:28:41.135Z,981.36
2023-01-17T02:29:41.118Z,981.24
2023-01-17T02:30:41.287Z,981.37
2023-01-17T02:31:41.132Z,981.42
2023-01-17T02:32:41.106Z,981.36
2023-01-17T02:33:41.080Z,981.41
2023-01-17T02:34:41.077Z,981.47
2023-01-17T02:35:41.081Z,981.46
2023-01-17T02:36:41.085Z,981.39
2023-01-17T02:37:41.075Z,981.55
2023-01-17T02:38:41.074Z,981.53
2023-01-17T02:39:41.005Z,981.54
2023-01-17T02:40:40.997Z,981.62
2023-01-17T02:41:41.043Z,981.76
2023-01-17T02:42:41.009Z,981.61
2023-01-17T02:43:41.000Z,981.65
2023-01-17T02:44:40.960Z,981.67
2023-01-17T02:45:40.965Z,981.71
2023-01-17T02:46:41.289Z,981.74
2023-01-17T02:47:42.379Z,981.83
2023-01-17T02:48:40.928Z,981.78
2023-01-17T02:49:40.938Z,981.83
2023-01-17T02:50:40.906Z,981.87
2023-01-17T02:51:41.838Z,981.75
2023-01-17T02:52:40.895Z,981.86
2023-01-17T02:53:40.877Z,981.84
2023-01-17T02:54:40.910Z,981.81
2023-01-17T02:55:42.294Z,981.74
2023-01-17T02:56:40.849Z,981.77
2023-01-17T02:57:40.810Z,981.77
2023-01-17T02:58:40.809Z,981.86
2023-01-17T02:59:40.793Z,981.88
2023-01-17T03:00:40.815Z,981.86
2023-01-17T03:01:40.824Z,981.80
2023-01-17T03:02:40.834Z,981.80
2023-01-17T03:03:40.733Z,981.86
2023-01-17T03:04:40.743Z,981.80
2023-01-17T03:05:40.777Z,981.90
2023-01-17T03:06:40.713Z,981.86
2023-01-17T03:07:40.701Z,981.87
2023-01-17T03:08:40.700Z,981.86
2023-01-17T03:09:40.705Z,981.92
2023-01-17T03:10:41.692Z,981.99
2023-01-17T03:11:42.105Z,981.91
2023-01-17T03:12:40.668Z,981.98
2023-01-17T03:13:42.188Z,981.93
2023-01-17T03:14:40.633Z,981.93
2023-01-17T03:15:40.635Z,981.93
2023-01-17T03:16:40.684Z,982.03
2023-01-17T03:17:40.590Z,982.02
2023-01-17T03:18:42.051Z,982.04
2023-01-17T03:19:40.570Z,982.04
2023-01-17T03:20:40.576Z,982.09
2023-01-17T03:21:40.575Z,982.06
2023-01-17T03:22:40.543Z,982.08
2023-01-17T03:23:40.555Z,982.16
2023-01-17T03:24:40.526Z,982.08
2023-01-17T03:25:40.509Z,982.11
2023-01-17T03:26:40.493Z,982.13
2023-01-17T03:27:40.594Z,982.14
2023-01-17T03:28:40.490Z,982.21
2023-01-17T03:29:40.797Z,982.20
2023-01-17T03:30:42.470Z,982.08
2023-01-17T03:31:40.447Z,982.19
2023-01-17T03:32:40.425Z,982.30
2023-01-17T03:33:40.405Z,982.29
2023-01-17T03:34:40.412Z,982.23
2023-01-17T03:35:40.411Z,982.28
2023-01-17T03:36:40.377Z,982.26
2023-01-17T03:37:40.363Z,982.30
2023-01-17T03:38:41.123Z,982.29
2023-01-17T03:39:40.352Z,982.21
2023-01-17T03:40:40.366Z,982.19
2023-01-17T03:41:40.333Z,982.22
2023-01-17T03:42:40.381Z,982.30
2023-01-17T03:43:40.867Z,982.29
2023-01-17T03:44:40.302Z,982.28
2023-01-17T03:45:40.548Z,982.28
2023-01-17T03:46:40.766Z,982.24
2023-01-17T03:47:40.277Z,982.29
2023-01-17T03:48:40.270Z,982.22
2023-01-17T03:49:41.703Z,982.26
2023-01-17T03:50:40.286Z,982.33
2023-01-17T03:51:40.256Z,982.31
2023-01-17T03:52:40.224Z,982.33
2023-01-17T03:53:40.226Z,982.39
2023-01-17T03:54:40.200Z,982.29
2023-01-17T03:55:40.179Z,982.35
2023-01-17T03:56:40.430Z,982.38
2023-01-17T03:57:40.294Z,982.40
2023-01-17T03:58:40.202Z,982.40
2023-01-17T03:59:40.167Z,982.39
2023-01-17T04:00:40.162Z,982.49
2023-01-17T04:01:40.183Z,982.47
2023-01-17T04:02:40.179Z,982.46
2023-01-17T04:03:40.722Z,982.51
2023-01-17T04:04:40.110Z,982.47
2023-01-17T04:05:40.161Z,982.57
2023-01-17T04:06:40.298Z,982.55
2023-01-17T04:07:40.048Z,982.51
2023-01-17T04:08:40.041Z,982.58
2023-01-17T04:09:40.021Z,982.65
2023-01-17T04:10:40.811Z,982.54
2023-01-17T04:11:40.026Z,982.59
2023-01-17T04:12:40.111Z,982.68
2023-01-17T04:13:39.980Z,982.59
2023-01-17T04:14:40.053Z,982.63
2023-01-17T04:15:40.151Z,982.62
2023-01-17T04:16:40.083Z,982.65
2023-01-17T04:17:39.952Z,982.65
2023-01-17T04:18:39.991Z,982.64
2023-01-17T04:19:39.921Z,982.61
2023-01-17T04:20:39.945Z,982.60
2023-01-17T04:21:39.906Z,982.60
2023-01-17T04:22:39.996Z,982.50
2023-01-17T04:23:39.867Z,982.58
2023-01-17T04:24:39.857Z,982.52
2023-01-17T04:25:40.808Z,982.56
2023-01-17T04:26:39.844Z,982.64
2023-01-17T04:27:39.873Z,982.62
2023-01-17T04:28:39.835Z,982.61
2023-01-17T04:29:39.793Z,982.61
2023-01-17T04:30:39.840Z,982.59
2023-01-17T04:31:40.775Z,982.54
2023-01-17T04:32:39.854Z,982.58
2023-01-17T04:33:39.760Z,982.61
2023-01-17T04:34:41.693Z,982.58
2023-01-17T04:35:41.199Z,982.56
2023-01-17T04:36:39.737Z,982.65
2023-01-17T04:37:40.495Z,982.60
2023-01-17T04:38:39.746Z,982.63
2023-01-17T04:39:39.717Z,982.63
2023-01-17T04:40:39.695Z,982.61
2023-01-17T04:41:39.676Z,982.62
2023-01-17T04:42:39.677Z,982.67
2023-01-17T04:43:39.670Z,982.70
2023-01-17T04:44:39.674Z,982.65
2023-01-17T04:45:39.636Z,982.75
2023-01-17T04:46:39.631Z,982.69
2023-01-17T04:47:39.630Z,982.75
2023-01-17T04:48:39.968Z,982.75
2023-01-17T04:49:39.625Z,982.78
2023-01-17T04:50:40.119Z,982.80
2023-01-17T04:51:39.590Z,982.77
2023-01-17T04:52:39.560Z,982.84
2023-01-17T04:53:39.551Z,982.77
2023-01-17T04:54:39.541Z,982.79
2023-01-17T04:55:39.531Z,982.80
2023-01-17T04:56:39.520Z,982.80
2023-01-17T04:57:39.543Z,982.86
2023-01-17T04:58:39.509Z,982.85
2023-01-17T04:59:39.475Z,982.79
2023-01-17T05:00:39.471Z,982.80
2023-01-17T05:01:39.543Z,982.78
2023-01-17T05:02:39.502Z,982.81
2023-01-17T05:03:39.429Z,982.83
2023-01-17T05:04:39.544Z,982.88
2023-01-17T05:05:39.732Z,982.83
2023-01-17T05:06:39.408Z,982.93
2023-01-17T05:07:39.392Z,982.93
2023-01-17T05:08:39.412Z,982.83
2023-01-17T05:09:39.410Z,982.85
2023-01-17T05:10:39.406Z,982.95
2023-01-17T05:11:39.360Z,982.95
2023-01-17T05:12:39.373Z,982.95
2023-01-17T05:13:39.370Z,982.89
2023-01-17T05:14:39.349Z,982.86
2023-01-17T05:15:39.364Z,982.94
2023-01-17T05:16:40.266Z,982.96
2023-01-17T05:17:39.280Z,983.03
2023-01-17T05:18:40.234Z,982.97
2023-01-17T05:19:40.724Z,982.96
2023-01-17T05:20:39.329Z,983.03
2023-01-17T05:21:39.246Z,983.07
2023-01-17T05:22:39.221Z,983.02
2023-01-17T05:23:39.263Z,983.01
2023-01-17T05:24:39.221Z,983.00
2023-01-17T05:25:39.280Z,983.04
2023-01-17T05:26:39.204Z,983.07
2023-01-17T05:27:39.412Z,983.05
2023-01-17T05:28:39.170Z,983.09
2023-01-17T05:29:39.206Z,983.08
2023-01-17T05:30:40.671Z,983.09
2023-01-17T05:31:39.146Z,983.06
2023-01-17T05:32:39.115Z,983.11
2023-01-17T05:33:39.153Z,983.00
2023-01-17T05:34:39.104Z,983.07
2023-01-17T05:35:39.112Z,983.05
2023-01-17T05:36:39.070Z,983.07
2023-01-17T05:37:39.061Z,983.12
2023-01-17T05:38:39.061Z,983.15
2023-01-17T05:39:39.067Z,983.09
2023-01-17T05:40:39.040Z,983.11
2023-01-17T05:41:39.051Z,983.16
2023-01-17T05:42:39.017Z,983.14
2023-01-17T05:43:38.995Z,983.20
2023-01-17T05:44:39.018Z,983.12
2023-01-17T05:45:38.992Z,983.17
2023-01-17T05:46:39.046Z,983.11
2023-01-17T05:47:38.971Z,983.11
2023-01-17T05:48:38.954Z,983.24
2023-01-17T05:49:38.968Z,983.20
2023-01-17T05:50:38.931Z,983.20
2023-01-17T05:51:38.946Z,983.18
2023-01-17T05:52:38.904Z,983.25
2023-01-17T05:53:38.900Z,983.26
2023-01-17T05:54:38.917Z,983.22
2023-01-17T05:55:38.889Z,983.27
2023-01-17T05:56:38.856Z,983.29
2023-01-17T05:57:38.863Z,983.34
2023-01-17T05:58:38.832Z,983.28
2023-01-17T05:59:38.846Z,983.27
2023-01-17T06:00:38.831Z,983.30
2023-01-17T06:01:38.810Z,983.33
2023-01-17T06:02:38.846Z,983.33
2023-01-17T06:03:38.790Z,983.32
2023-01-17T06:04:38.880Z,983.32
2023-01-17T06:05:38.792Z,983.39
2023-01-17T06:06:38.781Z,983.41
2023-01-17T06:07:38.791Z,983.41
2023-01-17T06:08:39.111Z,983.41
2023-01-17T06:09:38.731Z,983.40
2023-01-17T06:10:38.938Z,983.43
2023-01-17T06:11:38.701Z,983.47
2023-01-17T06:12:38.710Z,983.44
2023-01-17T06:13:38.680Z,983.51
2023-01-17T06:14:38.664Z,983.47
2023-01-17T06:15:38.695Z,983.50
2023-01-17T06:16:38.690Z,983.46
2023-01-17T06:17:38.645Z,983.52
2023-01-17T06:18:38.623Z,983.55
2023-01-17T06:19:38.612Z,983.52
2023-01-17T06:20:38.629Z,983.50
2023-01-17T06:21:38.597Z,983.55
2023-01-17T06:22:38.660Z,983.62
2023-01-17T06:23:38.574Z,983.54
2023-01-17T06:24:39.531Z,983.44
2023-01-17T06:25:38.569Z,983.50
2023-01-17T06:26:38.538Z,983.46
2023-01-17T06:27:38.899Z,983.52
2023-01-17T06:28:38.546Z,983.60
2023-01-17T06:29:38.522Z,983.56
2023-01-17T06:30:38.512Z,983.66
2023-01-17T06:31:38.716Z,983.61
2023-01-17T06:32:38.480Z,983.66
2023-01-17T06:33:39.132Z,983.69
2023-01-17T06:34:38.473Z,983.64
2023-01-17T06:35:38.434Z,983.69
2023-01-17T06:36:38.441Z,983.66
2023-01-17T06:37:38.445Z,983.69
2023-01-17T06:38:38.404Z,983.69
2023-01-17T06:39:38.444Z,983.71
2023-01-17T06:40:38.390Z,983.68
2023-01-17T06:41:38.390Z,983.70
2023-01-17T06:42:38.598Z,983.70
2023-01-17T06:43:38.381Z,983.68
2023-01-17T06:44:38.361Z,983.69
2023-01-17T06:45:38.408Z,983.75
2023-01-17T06:46:38.343Z,983.72
2023-01-17T06:47:38.856Z,983.74
2023-01-17T06:48:38.342Z,983.78
2023-01-17T06:49:38.384Z,983.78
2023-01-17T06:50:38.275Z,983.70
2023-01-17T06:51:38.274Z,983.69
2023-01-17T06:52:38.257Z,983.71
2023-01-17T06:53:38.248Z,983.78
2023-01-17T06:54:38.241Z,983.80
2023-01-17T06:55:38.283Z,983.82
2023-01-17T06:56:38.207Z,983.75
2023-01-17T06:57:38.226Z,983.74
2023-01-17T06:58:38.202Z,983.83
2023-01-17T06:59:38.196Z,983.85
2023-01-17T07:00:40.574Z,983.86
2023-01-17T07:01:38.286Z,983.81
2023-01-17T07:02:38.141Z,983.81
2023-01-17T07:03:38.173Z,983.79
2023-01-17T07:04:38.116Z,983.86
2023-01-17T07:05:38.113Z,983.92
2023-01-17T07:06:38.144Z,983.82
2023-01-17T07:07:38.099Z,983.81
2023-01-17T07:08:38.068Z,983.87
2023-01-17T07:09:38.066Z,983.93
2023-01-17T07:10:38.064Z,983.93
2023-01-17T07:11:38.090Z,983.93
2023-01-17T07:12:38.182Z,983.92
2023-01-17T07:13:38.027Z,983.91
2023-01-17T07:14:38.027Z,983.95
2023-01-17T07:15:37.994Z,983.97
2023-01-17T07:16:37.989Z,984.04
2023-01-17T07:17:38.031Z,983.99
2023-01-17T07:18:37.975Z,983.95
2023-01-17T07:19:37.962Z,983.99
2023-01-17T07:20:37.939Z,983.97
2023-01-17T07:21:37.966Z,983.98
2023-01-17T07:22:37.982Z,983.99
2023-01-17T07:23:37.953Z,983.97
2023-01-17T07:24:37.901Z,983.92
2023-01-17T07:25:37.964Z,984.00
2023-01-17T07:26:37.939Z,983.95
2023-01-17T07:27:37.884Z,983.94
2023-01-17T07:28:37.867Z,983.94
2023-01-17T07:29:37.864Z,983.91
2023-01-17T07:30:37.848Z,983.92
2023-01-17T07:31:37.882Z,983.96
2023-01-17T07:32:37.831Z,983.96
2023-01-17T07:33:37.808Z,983.92
2023-01-17T07:34:37.797Z,983.96
2023-01-17T07:35:37.786Z,983.91
2023-01-17T07:36:37.773Z,983.99
2023-01-17T07:37:37.783Z,983.89
2023-01-17T07:38:37.749Z,983.96
2023-01-17T07:39:38.730Z,983.94
2023-01-17T07:40:42.017Z,983.92
2023-01-17T07:41:37.736Z,983.96
2023-01-17T07:42:37.717Z,983.97
2023-01-17T07:43:37.743Z,983.90
2023-01-17T07:44:38.955Z,983.90
2023-01-17T07:45:37.679Z,983.88
2023-01-17T07:46:37.724Z,983.86
2023-01-17T07:47:37.684Z,983.90
2023-01-17T07:48:37.669Z,983.90
2023-01-17T07:49:37.656Z,983.95
2023-01-17T07:50:37.635Z,983.81
2023-01-17T07:51:37.775Z,983.81
2023-01-17T07:52:37.603Z,983.82
2023-01-17T07:53:37.606Z,983.86
2023-01-17T07:54:37.595Z,983.93
2023-01-17T07:55:37.621Z,983.90
2023-01-17T07:56:37.583Z,983.90
2023-01-17T07:57:37.588Z,983.92
2023-01-17T07:58:38.486Z,983.95
2023-01-17T07:59:37.548Z,983.94
2023-01-17T08:00:37.563Z,983.97
2023-01-17T08:01:37.585Z,984.01
2023-01-17T08:02:37.498Z,984.01
2023-01-17T08:03:37.497Z,984.03
2023-01-17T08:04:37.503Z,983.98
2023-01-17T08:05:37.451Z,983.98
2023-01-17T08:06:37.460Z,983.96
2023-01-17T08:07:37.443Z,983.98
2023-01-17T08:08:37.420Z,984.00
2023-01-17T08:09:37.427Z,983.96
2023-01-17T08:10:37.435Z,983.94
2023-01-17T08:11:37.431Z,983.96
2023-01-17T08:12:37.380Z,983.93
2023-01-17T08:13:37.391Z,983.92
2023-01-17T08:14:37.341Z,983.91
2023-01-17T08:15:37.347Z,983.93
2023-01-17T08:16:37.454Z,983.99
2023-01-17T08:17:37.785Z,983.99
2023-01-17T08:18:37.345Z,984.00
2023-01-17T08:19:37.309Z,983.96
2023-01-17T08:20:37.300Z,983.99
2023-01-17T08:21:37.352Z,983.95
2023-01-17T08:22:37.267Z,983.98
2023-01-17T08:23:37.270Z,983.94
2023-01-17T08:24:37.268Z,983.93
2023-01-17T08:25:37.237Z,983.94
2023-01-17T08:26:37.232Z,983.95
2023-01-17T08:27:37.253Z,983.98
2023-01-17T08:28:37.238Z,984.01
2023-01-17T08:29:37.198Z,984.01
2023-01-17T08:30:37.231Z,983.99
2023-01-17T08:31:37.241Z,984.08
2023-01-17T08:32:37.163Z,984.08
2023-01-17T08:33:37.203Z,984.07
2023-01-17T08:34:37.149Z,984.06
2023-01-17T08:35:37.143Z,984.09
2023-01-17T08:36:37.134Z,984.08
2023-01-17T08:37:37.129Z,984.06
2023-01-17T08:38:37.117Z,984.08
2023-01-17T08:39:37.100Z,984.12
2023-01-17T08:40:37.100Z,984.09
2023-01-17T08:41:37.070Z,984.10
2023-01-17T08:42:37.071Z,984.13
2023-01-17T08:43:37.049Z,984.15
2023-01-17T08:44:37.050Z,984.15
2023-01-17T08:45:37.177Z,984.14
2023-01-17T08:46:37.004Z,984.15
2023-01-17T08:47:36.998Z,984.12
2023-01-17T08:48:36.988Z,984.14
2023-01-17T08:49:37.030Z,984.14
2023-01-17T08:50:36.987Z,984.08
2023-01-17T08:51:36.970Z,984.10
2023-01-17T08:52:36.943Z,984.15
2023-01-17T08:53:36.959Z,984.18
2023-01-17T08:54:36.948Z,984.14
2023-01-17T08:55:36.916Z,984.21
2023-01-17T08:56:36.919Z,984.16
2023-01-17T08:57:36.918Z,984.22
2023-01-17T08:58:36.883Z,984.17
2023-01-17T08:59:36.887Z,984.22
2023-01-17T09:00:36.880Z,984.14
2023-01-17T09:01:37.136Z,984.19
2023-01-17T09:02:36.834Z,984.19
2023-01-17T09:03:38.362Z,984.17
2023-01-17T09:04:36.876Z,984.15
2023-01-17T09:05:36.808Z,984.22
2023-01-17T09:06:36.827Z,984.21
2023-01-17T09:07:36.779Z,984.21
2023-01-17T09:08:36.770Z,984.14
2023-01-17T09:09:36.783Z,984.20
2023-01-17T09:10:36.755Z,984.18
2023-01-17T09:11:36.752Z,984.12
2023-01-17T09:12:36.758Z,984.11
2023-01-17T09:13:36.889Z,984.21
2023-01-17T09:14:36.689Z,984.22
2023-01-17T09:15:36.723Z,984.18
2023-01-17T09:16:36.765Z,984.21
2023-01-17T09:17:36.668Z,984.25
2023-01-17T09:18:36.705Z,984.24
2023-01-17T09:19:36.650Z,984.29
2023-01-17T09:20:36.659Z,984.28
2023-01-17T09:21:36.682Z,984.28
2023-01-17T09:22:36.631Z,984.28
2023-01-17T09:23:36.628Z,984.29
2023-01-17T09:24:36.598Z,984.38
2023-01-17T09:25:36.591Z,984.35
2023-01-17T09:26:36.597Z,984.27
2023-01-17T09:27:36.612Z,984.29
2023-01-17T09:28:36.570Z,984.29
2023-01-17T09:29:36.531Z,984.28
2023-01-17T09:30:36.609Z,984.28
2023-01-17T09:31:36.539Z,984.28
2023-01-17T09:32:36.537Z,984.25
2023-01-17T09:33:36.509Z,984.24
2023-01-17T09:34:37.468Z,984.25
2023-01-17T09:35:36.781Z,984.28
2023-01-17T09:36:36.519Z,984.26
2023-01-17T09:37:37.413Z,984.24
2023-01-17T09:38:36.443Z,984.28
2023-01-17T09:39:36.428Z,984.26
2023-01-17T09:40:36.440Z,984.30
2023-01-17T09:41:36.414Z,984.25
2023-01-17T09:42:36.462Z,984.29
2023-01-17T09:43:36.395Z,984.28
2023-01-17T09:44:36.395Z,984.24
2023-01-17T09:45:36.400Z,984.28
2023-01-17T09:46:36.395Z,984.32
2023-01-17T09:47:36.413Z,984.33
2023-01-17T09:48:36.346Z,984.35
2023-01-17T09:49:36.327Z,984.35
2023-01-17T09:50:36.317Z,984.34
2023-01-17T09:51:36.318Z,984.43
2023-01-17T09:52:36.294Z,984.40
2023-01-17T09:53:36.292Z,984.37
2023-01-17T09:54:36.301Z,984.40
2023-01-17T09:55:36.269Z,984.43
2023-01-17T09:56:36.278Z,984.44
2023-01-17T09:57:36.262Z,984.37
2023-01-17T09:58:36.233Z,984.37
2023-01-17T09:59:36.222Z,984.34
2023-01-17T10:00:36.213Z,984.32
2023-01-17T10:01:36.358Z,984.33
2023-01-17T10:02:36.329Z,984.37
2023-01-17T10:03:36.333Z,984.34
2023-01-17T10:04:36.188Z,984.40
2023-01-17T10:05:36.148Z,984.34
2023-01-17T10:06:36.154Z,984.37
2023-01-17T10:07:37.089Z,984.38
2023-01-17T10:08:36.151Z,984.33
2023-01-17T10:09:36.099Z,984.41
2023-01-17T10:10:36.101Z,984.37
2023-01-17T10:11:36.119Z,984.37
2023-01-17T10:12:36.094Z,984.39
2023-01-17T10:13:36.128Z,984.41
2023-01-17T10:14:36.052Z,984.42
2023-01-17T10:15:36.060Z,984.40
2023-01-17T10:16:36.085Z,984.40
2023-01-17T10:17:36.024Z,984.41
2023-01-17T10:18:36.015Z,984.40
2023-01-17T10:19:36.029Z,984.41
2023-01-17T10:20:35.992Z,984.43
2023-01-17T10:21:35.974Z,984.40
2023-01-17T10:22:35.976Z,984.38
2023-01-17T10:23:35.947Z,984.46
2023-01-17T10:24:35.972Z,984.39
2023-01-17T10:25:35.984Z,984.41
2023-01-17T10:26:35.934Z,984.41
2023-01-17T10:27:35.925Z,984.42
2023-01-17T10:28:35.909Z,984.37
2023-01-17T10:29:35.934Z,984.35
2023-01-17T10:30:35.920Z,984.36
2023-01-17T10:31:35.928Z,984.44
2023-01-17T10:32:35.881Z,984.44
2023-01-17T10:33:35.857Z,984.45
2023-01-17T10:34:36.191Z,984.47
2023-01-17T10:35:35.822Z,984.43
2023-01-17T10:36:35.851Z,984.50
2023-01-17T10:37:35.806Z,984.50
2023-01-17T10:38:35.798Z,984.51
2023-01-17T10:39:35.794Z,984.49
2023-01-17T10:40:35.798Z,984.48
2023-01-17T10:41:35.797Z,984.50
2023-01-17T10:42:35.760Z,984.46
2023-01-17T10:43:35.756Z,984.50
2023-01-17T10:44:35.772Z,984.44
2023-01-17T10:45:35.721Z,984.44
2023-01-17T10:46:35.897Z,984.49
2023-01-17T10:47:35.717Z,984.46
2023-01-17T10:48:35.725Z,984.45
2023-01-17T10:49:35.705Z,984.40
2023-01-17T10:50:35.685Z,984.38
2023-01-17T10:51:37.128Z,984.48
2023-01-17T10:52:35.699Z,984.47
2023-01-17T10:53:35.617Z,984.40
2023-01-17T10:54:35.647Z,984.49
2023-01-17T10:55:35.640Z,984.50
2023-01-17T10:56:35.612Z,984.40
2023-01-17T10:57:36.164Z,984.39
2023-01-17T10:58:35.828Z,984.41
2023-01-17T10:59:35.577Z,984.37
2023-01-17T11:00:35.606Z,984.44
2023-01-17T11:01:35.607Z,984.37
2023-01-17T11:02:35.823Z,984.36
2023-01-17T11:03:35.765Z,984.33
2023-01-17T11:04:35.515Z,984.39
2023-01-17T11:05:35.514Z,984.32
2023-01-17T11:06:37.915Z,984.33
2023-01-17T11:07:36.468Z,984.35
2023-01-17T11:08:35.506Z,984.37
2023-01-17T11:09:35.461Z,984.30
2023-01-17T11:10:35.462Z,984.30
2023-01-17T11:11:36.881Z,984.29
2023-01-17T11:12:35.463Z,984.27
2023-01-17T11:13:35.549Z,984.26
2023-01-17T11:14:35.413Z,984.22
2023-01-17T11:15:35.503Z,984.19
2023-01-17T11:16:35.650Z,984.21
2023-01-17T11:17:35.397Z,984.18
2023-01-17T11:18:35.404Z,984.24
2023-01-17T11:19:35.368Z,984.19
2023-01-17T11:20:35.377Z,984.21
2023-01-17T11:21:35.407Z,984.26
2023-01-17T11:22:35.347Z,984.26
2023-01-17T11:23:35.425Z,984.24
2023-01-17T11:24:35.309Z,984.17
2023-01-17T11:25:35.359Z,984.19
2023-01-17T11:26:35.296Z,984.14
2023-01-17T11:27:35.266Z,984.15
2023-01-17T11:28:35.252Z,984.17
2023-01-17T11:29:36.935Z,984.14
2023-01-17T11:30:35.261Z,984.17
2023-01-17T11:31:35.239Z,984.14
2023-01-17T11:32:35.426Z,984.11
2023-01-17T11:33:35.246Z,984.06
2023-01-17T11:34:35.188Z,984.07
2023-01-17T11:35:35.210Z,984.11
2023-01-17T11:36:35.167Z,984.04
2023-01-17T11:37:35.168Z,984.01
2023-01-17T11:38:35.146Z,984.02
2023-01-17T11:39:35.168Z,984.01
2023-01-17T11:40:35.121Z,983.98
2023-01-17T11:41:35.111Z,983.97
2023-01-17T11:42:35.129Z,983.99
2023-01-17T11:43:35.376Z,984.00
2023-01-17T11:44:35.106Z,984.03
2023-01-17T11:45:35.078Z,983.98
2023-01-17T11:46:35.077Z,983.95
2023-01-17T11:47:35.042Z,983.95
2023-01-17T11:48:35.231Z,984.02
2023-01-17T11:49:35.039Z,984.00
2023-01-17T11:50:35.013Z,983.99
2023-01-17T11:51:34.993Z,983.96
2023-01-17T11:52:34.983Z,983.95
2023-01-17T11:53:34.988Z,983.97
2023-01-17T11:54:34.956Z,984.02
2023-01-17T11:55:34.966Z,984.02
2023-01-17T11:56:34.952Z,984.03
2023-01-17T11:57:34.948Z,983.98
2023-01-17T11:58:34.963Z,983.95
2023-01-17T11:59:34.920Z,983.90
2023-01-17T12:00:34.944Z,983.91
2023-01-17T12:01:34.914Z,983.94
2023-01-17T12:02:34.886Z,983.95
2023-01-17T12:03:34.901Z,983.96
2023-01-17T12:04:36.488Z,983.91
2023-01-17T12:05:34.855Z,983.95
2023-01-17T12:06:44.767Z,984.00
2023-01-17T12:07:35.831Z,983.97
2023-01-17T12:08:34.816Z,983.99
2023-01-17T12:09:34.829Z,983.91
2023-01-17T12:10:34.831Z,983.94
2023-01-17T12:11:34.791Z,983.93
2023-01-17T12:12:34.763Z,983.92
2023-01-17T12:13:34.752Z,983.87
2023-01-17T12:14:34.741Z,983.92
2023-01-17T12:15:34.772Z,983.90
2023-01-17T12:16:34.723Z,983.89
2023-01-17T12:17:34.705Z,983.81
2023-01-17T12:18:34.755Z,983.80
2023-01-17T12:19:34.717Z,983.82
2023-01-17T12:20:34.691Z,983.86
2023-01-17T12:21:34.677Z,983.83
2023-01-17T12:22:34.651Z,983.81
2023-01-17T12:23:34.664Z,983.84
2023-01-17T12:24:34.628Z,983.85
2023-01-17T12:25:34.624Z,983.84
2023-01-17T12:26:35.139Z,983.85
2023-01-17T12:27:34.671Z,983.82
2023-01-17T12:28:34.639Z,983.84